Time;durP1;ratioP1;P1;durP2;ratioP2;P2;SDS_P1;SDS_P2;PMS_P1;PMS_P2;Temp;Humidity;BMP_temperature;BMP_pressure;BME280_temperature;BME280_humidity;BME280_pressure;Samples;Min_cycle;Max_cycle;Signal;HPM_P1;HPM_P2
2022/01/31 00:01:47;;;;;;;3.20;1.40;;;1.10;99.90;;;;;;6202989;23;20080;-87
2022/01/31 00:04:21;;;;;;;6.43;1.53;;;1.10;99.90;;;;;;6202777;23;20080;-87
2022/01/31 00:06:48;;;;;;;8.63;1.60;;;1.10;99.90;;;;;;6202501;23;20004;-87
2022/01/31 00:09:18;;;;;;;5.63;2.03;;;1.20;99.90;;;;;;6197882;23;20015;-88
2022/01/31 00:11:53;;;;;;;4.97;1.60;;;1.20;99.90;;;;;;6229137;23;20019;-86
2022/01/31 00:14:40;;;;;;;7.37;2.33;;;1.20;99.90;;;;;;6202934;23;20008;-88
2022/01/31 00:17:08;;;;;;;6.30;1.87;;;1.40;99.90;;;;;;6200711;23;19997;-88
2022/01/31 00:19:37;;;;;;;4.13;1.40;;;1.30;99.90;;;;;;6202263;23;20004;-87
2022/01/31 00:22:12;;;;;;;8.00;2.07;;;1.30;99.90;;;;;;6203827;23;20001;-87
2022/01/31 00:24:40;;;;;;;6.40;1.93;;;1.50;99.90;;;;;;6204691;23;20008;-87
2022/01/31 00:27:08;;;;;;;4.97;1.40;;;1.50;99.90;;;;;;6203390;23;20004;-87
2022/01/31 00:29:40;;;;;;;7.30;1.57;;;1.60;99.90;;;;;;6201224;23;20012;-88
2022/01/31 00:32:09;;;;;;;3.20;1.20;;;1.50;99.90;;;;;;6200996;23;20064;-87
2022/01/31 00:34:35;;;;;;;6.53;1.77;;;1.50;99.90;;;;;;6201269;23;20418;-87
2022/01/31 00:37:03;;;;;;;6.63;1.60;;;1.50;99.90;;;;;;6200374;23;20000;-87
2022/01/31 00:39:33;;;;;;;3.80;1.43;;;1.50;99.90;;;;;;6228565;23;20004;-88
2022/01/31 00:41:59;;;;;;;6.10;1.60;;;1.60;99.90;;;;;;6202745;23;20062;-87
2022/01/31 00:44:41;;;;;;;9.57;2.07;;;1.60;99.90;;;;;;6201995;23;20016;-89
2022/01/31 00:47:18;;;;;;;5.15;1.75;;;1.50;99.90;;;;;;6202663;23;20001;-87
2022/01/31 00:49:52;;;;;;;9.67;1.83;;;1.60;99.90;;;;;;6201194;23;20068;-87
2022/01/31 00:52:21;;;;;;;7.60;2.00;;;1.60;99.90;;;;;;6227642;23;20335;-87
2022/01/31 00:54:48;;;;;;;8.97;1.77;;;1.70;99.90;;;;;;6226230;23;20175;-86
2022/01/31 00:57:16;;;;;;;10.47;1.53;;;1.60;99.90;;;;;;6203061;23;20001;-87
2022/01/31 00:59:45;;;;;;;8.67;1.40;;;1.60;99.90;;;;;;6201230;23;20004;-87
2022/01/31 01:02:11;;;;;;;4.30;1.20;;;1.60;99.90;;;;;;6197837;23;20080;-88
2022/01/31 01:04:40;;;;;;;7.67;1.80;;;1.70;99.90;;;;;;6201535;23;20070;-87
2022/01/31 01:07:06;;;;;;;4.63;1.47;;;1.70;99.90;;;;;;6201456;23;20067;-87
2022/01/31 01:09:31;;;;;;;4.47;1.33;;;1.60;99.90;;;;;;6200125;23;20001;-87
2022/01/31 01:12:02;;;;;;;9.80;2.03;;;1.70;99.90;;;;;;6199209;23;20016;-87
2022/01/31 01:14:28;;;;;;;5.83;2.17;;;1.70;99.90;;;;;;6200462;23;20012;-88
2022/01/31 01:16:56;;;;;;;8.97;1.87;;;1.70;99.90;;;;;;6206308;23;20060;-87
2022/01/31 01:19:25;;;;;;;4.97;1.40;;;1.60;99.90;;;;;;6204579;23;20051;-88
2022/01/31 01:21:51;;;;;;;4.67;1.57;;;1.50;99.90;;;;;;6205121;23;20023;-88
2022/01/31 01:24:20;;;;;;;11.13;1.70;;;1.50;99.90;;;;;;6202415;23;20013;-87
2022/01/31 01:26:47;;;;;;;8.47;1.90;;;1.50;99.90;;;;;;6201787;23;20004;-88
2022/01/31 01:29:13;;;;;;;5.60;1.90;;;1.60;99.90;;;;;;6200556;23;20011;-87
2022/01/31 01:31:39;;;;;;;6.70;1.87;;;1.50;99.90;;;;;;6201226;23;20012;-86
2022/01/31 01:34:06;;;;;;;11.70;2.03;;;1.50;99.90;;;;;;6227638;23;20005;-87
2022/01/31 01:36:32;;;;;;;7.57;1.97;;;1.50;99.90;;;;;;6200891;23;20024;-87
2022/01/31 01:39:01;;;;;;;8.87;2.10;;;1.50;99.90;;;;;;6200483;23;20004;-87
2022/01/31 01:41:27;;;;;;;6.57;1.67;;;1.60;99.90;;;;;;6200275;23;20005;-87
2022/01/31 01:43:55;;;;;;;10.40;1.90;;;1.60;99.90;;;;;;6200354;23;20087;-87
2022/01/31 01:46:21;;;;;;;9.80;2.20;;;1.60;99.90;;;;;;6225770;23;20012;-88
2022/01/31 01:48:47;;;;;;;9.33;2.07;;;1.60;99.90;;;;;;6225971;23;20363;-87
2022/01/31 01:51:13;;;;;;;7.90;1.90;;;1.60;99.90;;;;;;6225412;23;20005;-88
2022/01/31 01:53:39;;;;;;;4.30;1.47;;;1.70;99.90;;;;;;6225991;23;20390;-88
2022/01/31 01:56:05;;;;;;;8.93;1.70;;;1.70;99.90;;;;;;6225996;23;20000;-88
2022/01/31 01:58:38;;;;;;;4.20;1.40;;;1.70;99.90;;;;;;6223329;23;20323;-88
2022/01/31 02:01:05;;;;;;;6.77;1.70;;;1.70;99.90;;;;;;6220918;23;20003;-87
2022/01/31 02:03:33;;;;;;;8.47;2.00;;;1.60;99.90;;;;;;6218522;23;20502;-88
2022/01/31 02:05:59;;;;;;;8.30;1.80;;;1.70;99.90;;;;;;6220722;23;20004;-88
2022/01/31 02:08:27;;;;;;;8.17;2.17;;;1.50;99.90;;;;;;6220971;23;20031;-87
2022/01/31 02:10:54;;;;;;;12.90;2.63;;;1.50;99.90;;;;;;6218669;23;19996;-87
2022/01/31 02:13:24;;;;;;;6.87;1.70;;;1.40;99.90;;;;;;6228003;23;20011;-87
2022/01/31 02:15:51;;;;;;;12.80;2.20;;;1.40;99.90;;;;;;6250844;22;20005;-87
2022/01/31 02:18:20;;;;;;;5.13;1.53;;;1.40;99.90;;;;;;6227073;23;20032;-87
2022/01/31 02:20:46;;;;;;;4.67;1.60;;;1.40;99.90;;;;;;6225192;23;20027;-87
2022/01/31 02:23:14;;;;;;;8.80;1.70;;;1.40;99.90;;;;;;6226994;23;20004;-87
2022/01/31 02:26:01;;;;;;;11.47;1.93;;;1.40;99.90;;;;;;6228144;23;20027;-87
2022/01/31 02:28:29;;;;;;;6.20;2.40;;;1.40;99.90;;;;;;6226489;23;20008;-88
2022/01/31 02:30:56;;;;;;;9.20;1.70;;;1.30;99.90;;;;;;6227389;23;20004;-87
2022/01/31 02:33:28;;;;;;;7.23;1.80;;;1.20;99.90;;;;;;6225541;23;20011;-88
2022/01/31 02:36:05;;;;;;;7.65;2.30;;;1.20;99.90;;;;;;6224588;23;20009;-88
2022/01/31 02:38:31;;;;;;;10.40;3.53;;;1.20;99.90;;;;;;6224486;23;20031;-88
2022/01/31 02:40:57;;;;;;;5.50;1.70;;;1.20;99.90;;;;;;6250109;23;20096;-88
2022/01/31 02:43:26;;;;;;;5.80;1.80;;;1.20;99.90;;;;;;6226116;23;20012;-89
2022/01/31 02:45:52;;;;;;;10.53;1.83;;;1.30;99.90;;;;;;6226172;23;20019;-88
2022/01/31 02:48:21;;;;;;;9.63;1.87;;;1.30;99.90;;;;;;6225473;23;20404;-89
2022/01/31 02:50:47;;;;;;;11.83;2.13;;;1.30;99.90;;;;;;6225947;23;20058;-88
2022/01/31 02:55:49;;;;;;;5.30;1.60;;;1.30;99.90;;;;;;6225725;23;20008;-88
2022/01/31 02:58:16;;;;;;;7.67;1.90;;;1.30;99.90;;;;;;6223192;23;20019;-88
2022/01/31 03:00:42;;;;;;;3.33;1.13;;;1.30;99.90;;;;;;6221787;23;20309;-89
2022/01/31 03:03:08;;;;;;;8.57;1.87;;;1.30;99.90;;;;;;6221496;23;20087;-87
2022/01/31 03:05:40;;;;;;;5.33;1.83;;;1.30;99.90;;;;;;6221998;23;20005;-88
2022/01/31 03:08:07;;;;;;;6.47;1.77;;;1.30;99.90;;;;;;6246624;23;20004;-87
2022/01/31 03:10:36;;;;;;;4.90;1.77;;;1.20;99.90;;;;;;6220649;23;20008;-88
2022/01/31 03:13:03;;;;;;;7.77;1.93;;;1.20;99.90;;;;;;6221077;23;20005;-88
2022/01/31 03:15:34;;;;;;;14.90;1.97;;;1.20;99.90;;;;;;6220030;23;20091;-87
2022/01/31 03:18:00;;;;;;;5.47;1.35;;;1.20;99.90;;;;;;6243401;23;20072;-88
2022/01/31 03:20:26;;;;;;;7.53;1.80;;;1.20;99.90;;;;;;6217444;23;20001;-88
2022/01/31 03:22:53;;;;;;;6.83;2.30;;;1.20;99.90;;;;;;6216165;23;20308;-88
2022/01/31 03:25:21;;;;;;;8.50;2.53;;;1.20;99.90;;;;;;6216311;23;20028;-87
2022/01/31 03:27:48;;;;;;;8.00;1.57;;;1.20;99.90;;;;;;6227434;23;20000;-88
2022/01/31 03:30:17;;;;;;;9.67;2.13;;;1.20;99.90;;;;;;6224908;23;20005;-87
2022/01/31 03:32:43;;;;;;;4.03;1.63;;;1.20;99.90;;;;;;6223986;23;20016;-87
2022/01/31 03:35:12;;;;;;;5.53;1.73;;;1.10;99.90;;;;;;6223520;23;20008;-87
2022/01/31 03:37:41;;;;;;;9.53;2.03;;;1.20;99.90;;;;;;6224682;23;20012;-88
2022/01/31 03:40:08;;;;;;;6.20;1.77;;;1.10;99.90;;;;;;6223429;23;20118;-88
2022/01/31 03:42:38;;;;;;;4.90;1.87;;;1.10;99.90;;;;;;6224303;23;20001;-89
2022/01/31 03:45:07;;;;;;;7.70;2.00;;;1.10;99.90;;;;;;6249190;22;20017;-88
2022/01/31 03:47:33;;;;;;;12.03;1.70;;;1.10;99.90;;;;;;6223259;23;20001;-88
2022/01/31 03:49:59;;;;;;;6.77;2.27;;;1.20;99.90;;;;;;6247451;23;20076;-88
2022/01/31 03:52:25;;;;;;;4.23;1.37;;;1.10;99.90;;;;;;6223172;23;20009;-88
2022/01/31 03:54:51;;;;;;;8.73;2.30;;;1.20;99.90;;;;;;6222994;23;20004;-88
2022/01/31 03:57:17;;;;;;;5.37;1.70;;;1.20;99.90;;;;;;6224240;23;20024;-88
2022/01/31 03:59:42;;;;;;;7.07;1.47;;;1.30;99.90;;;;;;6223628;23;20077;-87
2022/01/31 04:02:11;;;;;;;7.53;2.70;;;1.30;99.90;;;;;;6223191;23;20008;-88
2022/01/31 04:04:37;;;;;;;4.47;2.10;;;1.30;99.90;;;;;;6223014;23;20035;-88
2022/01/31 04:07:03;;;;;;;8.00;1.63;;;1.30;99.90;;;;;;6223532;23;20005;-89
2022/01/31 04:09:32;;;;;;;14.20;2.70;;;1.30;99.90;;;;;;6223352;23;20442;-88
2022/01/31 04:12:01;;;;;;;8.23;1.97;;;1.40;99.90;;;;;;6225372;23;20409;-89
2022/01/31 04:14:27;;;;;;;5.27;1.73;;;1.40;99.90;;;;;;6224490;23;20004;-88
2022/01/31 04:16:55;;;;;;;8.30;2.20;;;1.50;99.90;;;;;;6224666;23;20059;-86
2022/01/31 04:19:22;;;;;;;7.67;1.90;;;1.40;99.90;;;;;;6222115;23;20016;-88
2022/01/31 04:21:48;;;;;;;6.73;1.73;;;1.40;99.90;;;;;;6224509;23;20001;-88
2022/01/31 04:24:23;;;;;;;9.27;2.60;;;1.40;99.90;;;;;;6222007;23;20005;-89
2022/01/31 04:27:05;;;;;;;5.47;2.00;;;1.40;99.90;;;;;;6223561;23;20335;-88
2022/01/31 04:29:40;;;;;;;9.77;2.20;;;1.50;99.90;;;;;;6223406;23;20080;-88
2022/01/31 04:32:06;;;;;;;6.63;1.73;;;1.50;99.90;;;;;;6223812;23;20351;-88
2022/01/31 04:34:35;;;;;;;8.87;2.00;;;1.50;99.90;;;;;;6225648;23;20005;-88
2022/01/31 04:37:01;;;;;;;5.60;2.30;;;1.50;99.90;;;;;;6226956;23;20004;-88
2022/01/31 04:39:29;;;;;;;5.30;1.73;;;1.50;99.90;;;;;;6226308;23;20001;-88
2022/01/31 04:41:55;;;;;;;6.33;2.33;;;1.40;99.90;;;;;;6226526;23;20004;-88
2022/01/31 04:44:22;;;;;;;5.57;1.90;;;1.50;99.90;;;;;;6249659;22;20063;-88
2022/01/31 04:46:51;;;;;;;6.07;1.40;;;1.50;99.90;;;;;;6225832;23;20000;-87
2022/01/31 04:49:19;;;;;;;5.57;1.93;;;1.50;99.90;;;;;;6198942;23;20001;-88
2022/01/31 04:51:45;;;;;;;10.47;2.30;;;1.50;99.90;;;;;;6200560;23;20004;-88
2022/01/31 04:54:11;;;;;;;7.13;1.87;;;1.50;99.90;;;;;;6201373;23;20093;-88
2022/01/31 04:56:47;;;;;;;6.73;2.03;;;1.60;99.90;;;;;;6201403;23;20007;-88
2022/01/31 04:59:14;;;;;;;9.67;1.67;;;1.60;99.90;;;;;;6200009;23;20001;-88
2022/01/31 05:01:43;;;;;;;4.23;1.33;;;1.60;99.90;;;;;;6199675;23;20082;-87
2022/01/31 05:04:12;;;;;;;5.90;1.83;;;1.60;99.90;;;;;;6197286;23;20458;-88
2022/01/31 05:06:40;;;;;;;6.63;1.70;;;1.60;99.90;;;;;;6198145;23;20055;-89
2022/01/31 05:09:14;;;;;;;7.27;1.80;;;1.60;99.90;;;;;;6198345;23;20058;-86
2022/01/31 05:11:42;;;;;;;5.30;2.10;;;1.60;99.90;;;;;;6198890;23;20001;-89
2022/01/31 05:14:08;;;;;;;10.10;1.50;;;1.70;99.90;;;;;;6197877;23;20004;-89
2022/01/31 05:16:34;;;;;;;7.67;1.57;;;1.70;99.90;;;;;;6198842;23;20088;-88
2022/01/31 05:19:01;;;;;;;8.00;1.97;;;1.70;99.90;;;;;;6198512;23;20009;-89
2022/01/31 05:21:27;;;;;;;4.30;0.97;;;1.80;99.90;;;;;;6198468;23;20000;-88
2022/01/31 05:23:53;;;;;;;8.20;1.47;;;1.80;99.90;;;;;;6198104;23;20001;-88
2022/01/31 05:26:24;;;;;;;5.80;1.47;;;1.80;99.90;;;;;;6198442;23;20001;-88
2022/01/31 05:28:51;;;;;;;5.60;1.60;;;1.90;99.90;;;;;;6197239;23;20059;-87
2022/01/31 05:31:20;;;;;;;7.43;1.60;;;1.90;99.90;;;;;;6196214;23;20036;-87
2022/01/31 05:33:49;;;;;;;6.90;1.73;;;1.90;99.90;;;;;;6197158;23;20012;-88
2022/01/31 05:36:23;;;;;;;4.83;1.60;;;1.90;99.90;;;;;;6198117;23;20063;-88
2022/01/31 05:38:51;;;;;;;7.37;1.47;;;2.00;99.90;;;;;;6198855;23;20008;-88
2022/01/31 05:41:19;;;;;;;3.83;1.00;;;2.00;99.90;;;;;;6198267;23;20009;-88
2022/01/31 05:43:47;;;;;;;4.80;1.70;;;2.10;99.90;;;;;;6198130;23;20007;-88
2022/01/31 05:46:13;;;;;;;7.33;1.07;;;2.00;99.90;;;;;;6229733;22;20015;-84
2022/01/31 05:48:39;;;;;;;3.53;1.50;;;2.00;99.90;;;;;;6245827;22;20008;-87
2022/01/31 05:51:16;;;;;;;6.13;1.43;;;2.10;99.90;;;;;;6275328;22;20414;-87
2022/01/31 05:53:42;;;;;;;6.03;1.47;;;2.10;99.90;;;;;;6247410;22;20012;-87
2022/01/31 05:56:08;;;;;;;5.03;1.37;;;2.20;99.90;;;;;;6274930;22;20048;-87
2022/01/31 05:58:39;;;;;;;4.47;1.23;;;2.20;99.90;;;;;;6247273;22;20091;-88
2022/01/31 06:01:06;;;;;;;7.23;1.33;;;2.20;99.90;;;;;;6273629;22;20000;-87
2022/01/31 06:03:32;;;;;;;8.43;1.93;;;2.30;99.90;;;;;;6274264;22;20373;-87
2022/01/31 06:05:57;;;;;;;2.20;0.80;;;2.40;99.90;;;;;;6245287;22;20035;-87
2022/01/31 06:08:23;;;;;;;1.87;0.70;;;2.50;99.90;;;;;;6271117;22;20003;-87
2022/01/31 06:10:49;;;;;;;4.40;1.10;;;2.60;99.90;;;;;;6273691;22;20090;-86
2022/01/31 06:13:28;;;;;;;5.37;1.33;;;2.60;99.90;;;;;;6247551;22;20003;-87
2022/01/31 06:15:54;;;;;;;6.77;1.20;;;2.70;99.90;;;;;;6274197;22;20075;-87
2022/01/31 06:18:23;;;;;;;4.00;1.20;;;2.80;99.90;;;;;;6274554;22;20004;-87
2022/01/31 06:20:49;;;;;;;3.87;1.17;;;2.80;99.90;;;;;;6272302;22;20082;-87
2022/01/31 06:23:14;;;;;;;4.80;1.00;;;2.80;99.90;;;;;;6247269;22;20089;-86
2022/01/31 06:25:40;;;;;;;7.00;0.93;;;2.80;99.90;;;;;;6274582;22;19999;-86
2022/01/31 06:28:06;;;;;;;6.47;1.30;;;2.90;99.90;;;;;;6272421;22;20003;-87
2022/01/31 06:30:33;;;;;;;2.93;0.53;;;2.80;99.90;;;;;;6273969;22;20000;-88
2022/01/31 06:32:59;;;;;;;4.00;0.63;;;2.70;99.90;;;;;;6274600;22;20066;-88
2022/01/31 06:35:25;;;;;;;1.27;0.40;;;2.70;99.90;;;;;;6273526;22;20004;-87
2022/01/31 06:37:52;;;;;;;3.13;1.27;;;2.70;99.90;;;;;;6242796;22;20000;-87
2022/01/31 06:40:17;;;;;;;2.77;0.90;;;2.60;99.90;;;;;;6246065;22;20492;-87
2022/01/31 06:42:43;;;;;;;4.77;0.90;;;2.60;99.90;;;;;;6246309;22;20000;-87
2022/01/31 06:45:12;;;;;;;2.70;0.90;;;2.50;99.90;;;;;;6272233;22;20011;-87
2022/01/31 06:47:38;;;;;;;3.10;1.00;;;2.60;99.90;;;;;;6274183;22;20011;-87
2022/01/31 06:50:06;;;;;;;4.53;0.90;;;2.60;99.90;;;;;;6297562;22;20054;-87
2022/01/31 06:52:35;;;;;;;4.63;1.43;;;2.50;99.90;;;;;;6272705;22;20061;-87
2022/01/31 06:55:04;;;;;;;3.10;0.83;;;2.50;99.90;;;;;;6273838;22;20007;-87
2022/01/31 06:57:33;;;;;;;2.07;0.80;;;2.50;99.90;;;;;;6272390;22;20079;-87
2022/01/31 07:00:05;;;;;;;6.47;1.80;;;2.40;99.90;;;;;;6274048;22;20407;-86
2022/01/31 07:02:31;;;;;;;9.30;1.05;;;2.40;99.90;;;;;;6275256;22;20007;-86
2022/01/31 07:04:57;;;;;;;2.93;1.30;;;2.40;99.90;;;;;;6300466;22;20008;-86
2022/01/31 07:07:23;;;;;;;5.07;1.73;;;2.40;99.90;;;;;;6275688;22;20453;-87
2022/01/31 07:09:48;;;;;;;2.83;0.70;;;2.40;99.90;;;;;;6275495;22;20008;-86
2022/01/31 07:12:16;;;;;;;5.60;1.20;;;2.40;99.90;;;;;;6300080;22;20003;-87
2022/01/31 07:14:42;;;;;;;5.73;2.17;;;2.40;99.90;;;;;;6300245;22;20457;-84
2022/01/31 07:17:07;;;;;;;6.80;1.70;;;2.40;99.90;;;;;;6299119;22;20003;-85
2022/01/31 07:19:37;;;;;;;1.73;0.77;;;2.30;99.90;;;;;;6272733;22;20004;-85
2022/01/31 07:22:06;;;;;;;3.37;1.77;;;2.30;99.90;;;;;;6275693;22;19995;-85
2022/01/31 07:27:00;;;;;;;6.57;1.40;;;2.40;99.90;;;;;;6276299;22;20012;-86
2022/01/31 07:29:26;;;;;;;5.07;1.30;;;2.40;99.90;;;;;;6299977;22;20004;-86
2022/01/31 07:31:52;;;;;;;3.70;1.13;;;2.40;99.90;;;;;;6274783;22;20008;-85
2022/01/31 07:34:18;;;;;;;4.20;1.20;;;2.30;99.90;;;;;;6274013;22;20057;-86
2022/01/31 07:36:46;;;;;;;4.83;1.30;;;2.30;99.90;;;;;;6294851;22;20011;-86
2022/01/31 07:39:12;;;;;;;8.90;1.37;;;2.30;99.90;;;;;;6271589;22;20086;-87
2022/01/31 07:41:38;;;;;;;8.23;1.60;;;2.30;99.90;;;;;;6299098;22;20054;-87
2022/01/31 07:44:05;;;;;;;4.13;1.00;;;2.30;99.90;;;;;;6273945;22;20027;-87
2022/01/31 07:46:31;;;;;;;2.40;1.00;;;2.20;99.90;;;;;;6273501;22;20018;-88
2022/01/31 07:48:57;;;;;;;2.77;1.03;;;2.20;99.90;;;;;;6301927;22;20008;-87
2022/01/31 07:51:27;;;;;;;9.23;1.73;;;2.30;99.90;;;;;;6275211;22;20537;-86
2022/01/31 07:53:52;;;;;;;4.07;1.33;;;2.30;99.90;;;;;;6273721;22;20434;-87
2022/01/31 07:56:20;;;;;;;6.37;1.63;;;2.30;99.90;;;;;;6275079;22;20014;-87
2022/01/31 07:58:46;;;;;;;5.07;0.97;;;2.30;99.90;;;;;;6299120;22;20050;-87
2022/01/31 08:01:13;;;;;;;4.57;1.40;;;2.30;99.90;;;;;;6273461;22;20342;-87
2022/01/31 08:03:39;;;;;;;6.53;1.47;;;2.30;99.90;;;;;;6275436;22;20495;-87
2022/01/31 08:06:06;;;;;;;4.73;1.17;;;2.30;99.90;;;;;;6274255;22;20004;-87
2022/01/31 08:08:34;;;;;;;4.73;1.43;;;2.40;99.90;;;;;;6273392;22;20575;-87
2022/01/31 08:11:02;;;;;;;4.23;1.20;;;2.40;99.90;;;;;;6248688;22;20015;-86
2022/01/31 08:13:29;;;;;;;2.90;0.90;;;2.40;99.90;;;;;;6274653;22;20007;-87
2022/01/31 08:18:34;;;;;;;1.93;0.73;;;2.50;99.90;;;;;;6284772;22;20022;-87
2022/01/31 08:21:03;;;;;;;2.80;0.77;;;2.50;99.90;;;;;;6274392;22;20007;-87
2022/01/31 08:23:30;;;;;;;4.10;0.90;;;2.50;99.90;;;;;;6275691;22;20388;-87
2022/01/31 08:25:57;;;;;;;1.43;0.50;;;2.60;99.90;;;;;;6248481;22;20439;-87
2022/01/31 08:28:32;;;;;;;1.67;0.73;;;2.60;99.90;;;;;;6273350;22;20521;-87
2022/01/31 08:31:07;;;;;;;1.97;0.77;;;2.60;99.90;;;;;;6275696;22;20037;-87
2022/01/31 08:33:43;;;;;;;2.40;0.40;;;2.70;99.90;;;;;;6275551;22;20030;-88
2022/01/31 08:36:09;;;;;;;7.70;0.60;;;2.70;99.90;;;;;;6275333;22;20034;-88
2022/01/31 08:38:38;;;;;;;3.70;0.50;;;2.70;99.90;;;;;;6274494;22;20030;-88
2022/01/31 08:41:04;;;;;;;5.30;0.73;;;2.80;99.90;;;;;;6275472;22;19996;-87
2022/01/31 08:43:32;;;;;;;6.00;0.80;;;2.80;99.90;;;;;;6273906;22;20342;-88
2022/01/31 08:45:58;;;;;;;1.07;0.50;;;2.80;99.90;;;;;;6273054;22;20018;-87
2022/01/31 08:48:26;;;;;;;1.17;0.23;;;2.90;99.90;;;;;;6274889;22;20075;-88
2022/01/31 08:50:52;;;;;;;2.63;0.40;;;3.00;99.90;;;;;;6275317;22;20330;-87
2022/01/31 08:53:18;;;;;;;2.17;0.47;;;3.10;99.90;;;;;;6273842;22;20007;-87
2022/01/31 08:55:53;;;;;;;0.90;0.30;;;3.10;99.90;;;;;;6299032;22;20053;-87
2022/01/31 08:58:20;;;;;;;1.40;0.47;;;3.20;99.90;;;;;;6275156;22;19992;-87
2022/01/31 09:00:58;;;;;;;1.27;0.37;;;3.20;99.90;;;;;;6270198;22;20000;-89
2022/01/31 09:06:12;;;;;;;0.90;0.20;;;3.40;99.90;;;;;;6281483;22;20296;-89
2022/01/31 09:08:40;;;;;;;2.23;0.20;;;3.40;99.90;;;;;;6273484;22;20007;-88
2022/01/31 09:11:08;;;;;;;1.10;0.20;;;3.50;99.90;;;;;;6275412;22;20342;-89
2022/01/31 09:13:35;;;;;;;1.30;0.30;;;3.60;99.90;;;;;;6275696;22;19996;-90
2022/01/31 09:16:02;;;;;;;0.93;0.20;;;3.70;99.90;;;;;;6273243;22;20291;-89
2022/01/31 09:18:28;;;;;;;2.50;0.50;;;3.90;99.90;;;;;;6301222;22;20142;-90
2022/01/31 09:20:54;;;;;;;1.23;0.27;;;3.90;99.90;;;;;;6301399;22;20015;-89
2022/01/31 09:23:20;;;;;;;1.07;0.63;;;4.00;99.90;;;;;;6275960;22;20061;-90
2022/01/31 09:25:47;;;;;;;0.67;0.20;;;4.00;99.90;;;;;;6299631;22;20000;-89
2022/01/31 09:28:14;;;;;;;0.50;0.10;;;4.00;99.90;;;;;;6299248;22;20008;-88
2022/01/31 09:30:41;;;;;;;1.43;0.40;;;4.10;99.90;;;;;;6272925;22;20098;-89
2022/01/31 09:33:06;;;;;;;3.67;0.40;;;4.20;99.90;;;;;;6274492;22;20465;-89
2022/01/31 09:35:36;;;;;;;3.57;0.40;;;4.30;99.90;;;;;;6274333;22;20007;-89
2022/01/31 09:38:04;;;;;;;1.13;0.20;;;4.40;99.90;;;;;;6273769;22;20078;-89
2022/01/31 09:40:30;;;;;;;1.83;0.30;;;4.40;99.90;;;;;;6273708;22;20095;-89
2022/01/31 09:43:10;;;;;;;1.67;0.40;;;4.40;99.90;;;;;;6299669;22;20418;-88
2022/01/31 09:46:15;;;;;;;1.17;0.20;;;4.50;99.90;;;;;;6272498;22;20007;-89
2022/01/31 09:48:33;;;;;;;0.57;0.20;;;4.40;99.90;;;;;;6274287;22;20388;-90
2022/01/31 09:51:08;;;;;;;1.23;0.40;;;4.40;99.90;;;;;;6273632;22;20008;-88
2022/01/31 09:53:37;;;;;;;0.63;0.17;;;4.40;99.90;;;;;;6272471;22;20028;-88
2022/01/31 09:56:07;;;;;;;1.57;0.20;;;4.30;99.90;;;;;;6272877;22;20012;-88
2022/01/31 09:58:32;;;;;;;1.57;0.30;;;4.40;99.90;;;;;;6273637;22;20003;-89
2022/01/31 10:01:06;;;;;;;2.43;0.30;;;4.40;99.90;;;;;;6299616;22;20039;-89
2022/01/31 10:03:31;;;;;;;3.20;0.40;;;4.40;99.90;;;;;;6275119;22;20027;-87
2022/01/31 10:05:57;;;;;;;1.80;0.40;;;4.40;99.90;;;;;;6274712;22;20003;-89
2022/01/31 10:08:28;;;;;;;1.10;0.37;;;4.50;99.90;;;;;;6298917;22;20069;-89
2022/01/31 10:11:01;;;;;;;0.80;0.30;;;4.40;99.90;;;;;;6274143;22;20003;-89
2022/01/31 10:16:26;;;;;;;1.40;0.60;;;4.40;99.90;;;;;;6275418;22;20042;-89
2022/01/31 10:19:06;;;;;;;1.17;0.30;;;4.40;99.90;;;;;;6273913;22;20334;-89
2022/01/31 10:21:52;;;;;;;0.30;0.10;;;4.40;99.90;;;;;;6274238;22;20075;-88
2022/01/31 10:24:20;;;;;;;4.17;0.30;;;4.40;99.90;;;;;;6275004;22;20011;-89
2022/01/31 10:26:46;;;;;;;4.87;0.50;;;4.40;99.90;;;;;;6273942;22;20015;-89
2022/01/31 10:29:14;;;;;;;1.77;0.40;;;4.50;99.90;;;;;;6299164;22;20098;-89
2022/01/31 10:32:06;;;;;;;2.27;0.43;;;4.50;99.90;;;;;;6275614;22;20018;-88
2022/01/31 10:34:56;;;;;;;3.23;0.40;;;4.50;99.90;;;;;;6275472;22;19995;-87
2022/01/31 10:37:24;;;;;;;1.00;0.37;;;4.50;99.90;;;;;;6273450;22;20032;-88
2022/01/31 10:45:45;;;;;;;3.03;0.40;;;4.70;99.90;;;;;;6275083;22;20061;-89
2022/01/31 10:53:42;;;;;;;0.80;0.20;;;4.90;99.90;;;;;;6275416;22;20442;-87
2022/01/31 10:56:08;;;;;;;1.23;0.30;;;5.00;99.90;;;;;;6273585;22;19999;-88
2022/01/31 10:58:34;;;;;;;2.63;0.30;;;5.00;99.90;;;;;;6275448;22;20335;-89
2022/01/31 11:01:15;;;;;;;1.43;0.30;;;5.10;99.90;;;;;;6274147;22;20003;-90
2022/01/31 11:03:41;;;;;;;1.17;0.30;;;5.10;99.90;;;;;;6276837;22;20350;-89
2022/01/31 11:06:13;;;;;;;2.20;0.40;;;5.10;99.90;;;;;;6275925;22;20000;-88
2022/01/31 11:08:42;;;;;;;2.00;0.37;;;5.10;99.90;;;;;;6272956;22;20012;-88
2022/01/31 11:11:10;;;;;;;1.03;0.30;;;5.10;99.90;;;;;;6299687;22;20382;-88
2022/01/31 11:13:37;;;;;;;2.47;0.40;;;5.00;99.90;;;;;;6275603;22;20054;-89
2022/01/31 11:16:04;;;;;;;4.00;0.40;;;5.10;99.90;;;;;;6274970;22;19999;-88
2022/01/31 11:18:32;;;;;;;1.47;0.30;;;5.00;99.90;;;;;;6273195;22;20075;-89
2022/01/31 11:21:08;;;;;;;2.07;0.33;;;5.10;99.90;;;;;;6274020;22;20093;-88
2022/01/31 11:23:40;;;;;;;3.60;0.80;;;5.00;99.90;;;;;;6274616;22;20047;-88
2022/01/31 11:26:12;;;;;;;1.45;0.50;;;5.10;99.90;;;;;;6273735;22;20430;-89
2022/01/31 11:28:40;;;;;;;;;;;5.10;99.90;;;;;;6273090;22;20031;-88
2022/01/31 11:31:06;;;;;;;1.80;0.47;;;5.20;99.90;;;;;;6274036;22;19900;-88
2022/01/31 11:33:35;;;;;;;1.43;0.30;;;5.20;99.90;;;;;;6299291;22;20035;-88
2022/01/31 11:36:01;;;;;;;0.93;0.20;;;5.20;99.90;;;;;;6267611;22;20004;-88
2022/01/31 11:38:28;;;;;;;4.57;0.30;;;5.10;99.90;;;;;;6272970;22;20000;-89
2022/01/31 11:41:01;;;;;;;1.80;0.33;;;5.00;99.90;;;;;;6273165;22;20334;-88
2022/01/31 11:43:27;;;;;;;1.20;0.20;;;4.90;99.90;;;;;;6272563;22;20004;-88
2022/01/31 11:48:38;;;;;;;0.93;0.10;;;4.70;99.90;;;;;;6222589;22;20027;-85
2022/01/31 11:51:14;;;;;;;2.50;0.40;;;4.70;99.90;;;;;;6194342;23;20067;-86
2022/01/31 11:53:40;;;;;;;1.20;0.20;;;4.60;99.90;;;;;;6196052;23;20386;-86
2022/01/31 11:56:29;;;;;;;1.60;0.33;;;4.60;99.90;;;;;;6183646;23;20093;-86
2022/01/31 11:58:56;;;;;;;2.27;0.43;;;4.50;99.90;;;;;;6189664;23;20004;-86
2022/01/31 12:01:25;;;;;;;1.00;0.30;;;4.50;99.90;;;;;;6161970;23;20002;-86
2022/01/31 12:03:57;;;;;;;0.30;0.17;;;4.60;99.90;;;;;;6187944;23;20462;-85
2022/01/31 12:06:30;;;;;;;0.40;0.20;;;4.40;99.90;;;;;;6162888;23;20072;-86
2022/01/31 12:09:16;;;;;;;1.33;0.20;;;4.50;99.90;;;;;;6162072;23;20005;-84
2022/01/31 12:11:57;;;;;;;0.93;0.30;;;4.40;99.90;;;;;;6162741;23;20085;-86
2022/01/31 12:14:40;;;;;;;2.07;0.40;;;4.40;99.90;;;;;;6189028;23;20088;-88
2022/01/31 12:17:53;;;;;;;1.07;0.30;;;4.30;99.90;;;;;;6162604;23;20047;-87
2022/01/31 12:21:59;;;;;;;;;;;4.30;99.90;;;;;;6161218;23;20001;-86
2022/01/31 12:23:37;;;;;;;1.27;0.10;;;4.30;99.90;;;;;;6189119;23;19907;-86
2022/01/31 12:26:51;;;;;;;1.97;0.23;;;4.20;99.90;;;;;;6185961;23;20008;-86
2022/01/31 12:29:33;;;;;;;0.93;0.33;;;4.20;99.90;;;;;;6160084;23;20301;-85
2022/01/31 12:32:15;;;;;;;3.22;0.30;;;4.20;99.90;;;;;;6162185;23;20001;-86
2022/01/31 12:35:03;;;;;;;1.83;0.30;;;4.20;99.90;;;;;;6162785;23;20094;-86
2022/01/31 12:37:51;;;;;;;1.50;0.30;;;4.30;99.90;;;;;;6187389;23;19997;-85
2022/01/31 12:40:40;;;;;;;1.40;0.37;;;4.30;99.90;;;;;;6161201;23;20009;-85
2022/01/31 12:45:40;;;;;;;2.17;0.30;;;4.40;99.90;;;;;;6187623;23;20444;-85
2022/01/31 12:48:11;;;;;;;3.10;0.33;;;4.40;99.90;;;;;;6180842;23;20171;-86
2022/01/31 12:50:53;;;;;;;1.58;0.43;;;4.30;99.90;;;;;;6190624;23;20005;-86
2022/01/31 12:56:26;;;;;;;2.70;0.50;;;4.20;99.90;;;;;;6220105;23;20259;-86
2022/01/31 12:59:08;;;;;;;1.33;0.30;;;4.10;99.90;;;;;;6196372;23;20009;-84
2022/01/31 13:01:46;;;;;;;0.98;0.40;;;4.10;99.90;;;;;;6193962;23;20021;-86
2022/01/31 13:04:19;;;;;;;0.50;0.10;;;4.10;99.90;;;;;;6195223;23;20043;-86
2022/01/31 13:06:51;;;;;;;1.13;0.30;;;4.00;99.90;;;;;;6194370;23;20325;-87
2022/01/31 13:09:30;;;;;;;1.33;0.10;;;4.00;99.90;;;;;;6221792;23;20016;-86
2022/01/31 13:12:05;;;;;;;2.37;0.40;;;4.00;99.90;;;;;;6195741;23;20004;-86
2022/01/31 13:14:37;;;;;;;1.63;0.50;;;3.90;99.90;;;;;;6193132;23;20008;-86
2022/01/31 13:17:21;;;;;;;1.00;0.47;;;4.00;99.90;;;;;;6193831;23;20001;-87
2022/01/31 13:19:59;;;;;;;1.80;0.20;;;4.00;99.90;;;;;;6193576;23;20009;-86
2022/01/31 13:22:54;;;;;;;3.07;0.97;;;4.00;99.90;;;;;;6198986;23;20000;-87
2022/01/31 13:25:27;;;;;;;2.40;0.40;;;4.00;99.90;;;;;;6195084;23;20076;-86
2022/01/31 13:27:54;;;;;;;1.23;0.33;;;4.00;99.90;;;;;;6196426;23;20043;-86
2022/01/31 13:30:22;;;;;;;2.53;0.43;;;3.90;99.90;;;;;;6198220;23;20020;-86
2022/01/31 13:32:59;;;;;;;1.30;0.30;;;3.90;99.90;;;;;;6222582;23;20004;-86
2022/01/31 13:35:31;;;;;;;2.13;0.40;;;3.90;99.90;;;;;;6193084;23;20518;-86
2022/01/31 13:38:15;;;;;;;1.50;0.25;;;4.00;99.90;;;;;;6220619;23;20001;-86
2022/01/31 13:40:50;;;;;;;2.43;0.53;;;3.90;99.90;;;;;;6194578;23;20059;-85
2022/01/31 13:43:23;;;;;;;3.47;0.40;;;3.90;99.90;;;;;;6219692;23;20072;-86
2022/01/31 13:51:52;;;;;;;1.17;0.20;;;4.10;99.90;;;;;;6235518;23;20063;-86